createdAt,value
2023-02-23T00:03:56.895Z,5.70
2023-02-23T00:09:02.210Z,5.20
2023-02-23T00:14:05.935Z,5.20
2023-02-23T00:19:09.284Z,5.82
2023-02-23T00:24:16.848Z,4.05
2023-02-23T00:29:22.891Z,5.18
2023-02-23T00:34:26.240Z,6.00
2023-02-23T00:39:30.983Z,5.53
2023-02-23T00:44:35.046Z,5.15
2023-02-23T00:49:39.520Z,6.03
2023-02-23T00:54:44.499Z,5.88
2023-02-23T00:59:47.790Z,5.82
2023-02-23T01:04:52.063Z,7.38
2023-02-23T01:09:56.798Z,6.22
2023-02-23T01:15:00.198Z,6.13
2023-02-23T01:20:08.072Z,7.00
2023-02-23T01:25:13.502Z,7.00
2023-02-23T01:30:17.263Z,5.97
2023-02-23T01:35:20.612Z,7.25
2023-02-23T01:40:29.896Z,6.13
2023-02-23T01:45:35.868Z,7.68
2023-02-23T01:50:45.195Z,6.95
2023-02-23T01:55:55.133Z,6.55
2023-02-23T02:01:02.554Z,5.80
2023-02-23T02:06:09.804Z,5.35
2023-02-23T02:11:26.216Z,8.93
2023-02-23T02:16:55.844Z,5.65
2023-02-23T02:22:32.767Z,6.93
2023-02-23T02:27:58.647Z,5.88
2023-02-23T02:33:53.355Z,7.38
2023-02-23T02:39:08.062Z,7.15
2023-02-23T02:44:18.951Z,5.20
2023-02-23T02:49:30.680Z,6.13
2023-02-23T02:54:41.154Z,6.97
2023-02-23T03:00:03.177Z,6.47
2023-02-23T03:05:32.628Z,5.47
2023-02-23T03:11:01.200Z,7.15
2023-02-23T03:16:39.572Z,7.72
2023-02-23T03:22:08.032Z,7.50
2023-02-23T03:27:41.790Z,6.07
2023-02-23T03:33:07.199Z,7.82
2023-02-23T03:38:33.140Z,6.78
2023-02-23T03:44:00.645Z,6.50
2023-02-23T03:49:23.749Z,7.10
2023-02-23T03:54:49.663Z,5.55
2023-02-23T04:00:16.439Z,6.32
2023-02-23T04:05:39.646Z,6.43
2023-02-23T04:11:06.627Z,7.40
2023-02-23T04:16:11.981Z,7.05
2023-02-23T04:21:15.262Z,7.03
2023-02-23T04:26:18.574Z,6.57
2023-02-23T04:31:25.391Z,6.72
2023-02-23T04:36:28.958Z,6.72
2023-02-23T04:41:32.273Z,6.18
2023-02-23T04:46:37.531Z,7.55
2023-02-23T04:51:40.892Z,6.37
2023-02-23T04:56:44.173Z,6.55
2023-02-23T05:01:49.595Z,6.40
2023-02-23T05:06:53.424Z,6.80
2023-02-23T05:11:56.757Z,5.63
2023-02-23T05:17:01.539Z,7.38
2023-02-23T05:22:05.237Z,6.35
2023-02-23T05:27:09.389Z,7.72
2023-02-23T05:32:14.146Z,5.28
2023-02-23T05:37:17.439Z,10.45
2023-02-23T05:42:20.974Z,8.43
2023-02-23T05:47:25.715Z,6.90
2023-02-23T05:52:29.021Z,9.73
2023-02-23T05:57:32.409Z,9.30
2023-02-23T06:02:37.618Z,8.52
2023-02-23T06:07:40.983Z,7.65
2023-02-23T06:12:44.256Z,7.85
2023-02-23T06:17:48.941Z,7.43
2023-02-23T06:22:52.262Z,9.05
2023-02-23T06:27:55.572Z,8.55
2023-02-23T06:33:00.301Z,7.85
2023-02-23T06:38:04.697Z,9.05
2023-02-23T06:43:08.084Z,7.32
2023-02-23T06:48:12.934Z,8.63
2023-02-23T06:53:16.324Z,7.18
2023-02-23T06:58:19.642Z,8.13
2023-02-23T07:03:24.780Z,7.60
2023-02-23T07:08:28.243Z,8.40
2023-02-23T07:13:31.623Z,8.50
2023-02-23T07:18:36.635Z,9.73
2023-02-23T07:23:40.089Z,7.13
2023-02-23T07:28:44.033Z,8.15
2023-02-23T07:33:48.707Z,7.03
2023-02-23T07:38:52.243Z,9.13
2023-02-23T07:43:55.626Z,8.90
2023-02-23T07:49:00.380Z,6.88
2023-02-23T07:54:05.843Z,8.88
2023-02-23T07:59:26.113Z,8.75
2023-02-23T08:04:32.122Z,8.43
2023-02-23T08:09:36.014Z,9.10
2023-02-23T08:14:39.349Z,8.50
2023-02-23T08:19:44.076Z,8.05
2023-02-23T08:24:47.437Z,9.15
2023-02-23T08:29:52.585Z,7.72
2023-02-23T08:34:57.982Z,8.48
2023-02-23T08:40:01.843Z,6.03
2023-02-23T08:45:07.761Z,9.00
2023-02-23T08:50:14.969Z,7.50
2023-02-23T08:55:18.681Z,8.77
2023-02-23T09:00:22.905Z,6.80
2023-02-23T09:05:27.689Z,8.13
2023-02-23T09:10:32.279Z,8.30
2023-02-23T09:15:35.605Z,7.13
2023-02-23T09:20:42.886Z,8.07
2023-02-23T09:25:47.360Z,8.40
2023-02-23T09:30:50.714Z,8.45
2023-02-23T09:35:55.436Z,7.93
2023-02-23T09:40:58.810Z,7.85
2023-02-23T09:46:14.260Z,9.73
2023-02-23T09:51:22.759Z,7.88
2023-02-23T09:56:33.261Z,8.10
2023-02-23T10:02:00.137Z,9.60
2023-02-23T10:07:10.841Z,7.75
2023-02-23T10:12:21.048Z,7.78
2023-02-23T10:17:33.833Z,6.85
2023-02-23T10:22:40.781Z,9.35
2023-02-23T10:27:50.258Z,9.13
2023-02-23T10:33:00.604Z,7.90
2023-02-23T10:38:05.433Z,8.10
2023-02-23T10:43:08.909Z,10.23
2023-02-23T10:48:19.141Z,12.20
2023-02-23T10:53:26.862Z,9.18
2023-02-23T10:58:32.214Z,8.88
2023-02-23T11:03:40.111Z,8.68
2023-02-23T11:08:46.474Z,9.70
2023-02-23T11:13:51.470Z,11.23
2023-02-23T11:18:57.312Z,10.77
2023-02-23T11:24:16.777Z,11.50
2023-02-23T11:29:27.016Z,10.25
2023-02-23T11:34:32.353Z,8.77
2023-02-23T11:39:38.688Z,10.85
2023-02-23T11:44:42.431Z,11.85
2023-02-23T11:49:47.826Z,10.20
2023-02-23T11:54:57.321Z,11.38
2023-02-23T12:00:05.993Z,11.50
2023-02-23T12:05:21.319Z,9.90
2023-02-23T12:10:30.652Z,8.68
2023-02-23T12:15:41.852Z,10.00
2023-02-23T12:20:48.672Z,8.48
2023-02-23T12:25:59.716Z,9.13
2023-02-23T12:31:08.202Z,10.68
2023-02-23T12:36:22.268Z,9.77
2023-02-23T12:41:37.143Z,11.43
2023-02-23T12:46:48.386Z,11.35
2023-02-23T12:51:55.429Z,7.75
2023-02-23T12:57:13.248Z,10.55
2023-02-23T13:02:24.213Z,8.77
2023-02-23T13:07:39.335Z,11.07
2023-02-23T13:12:51.650Z,10.15
2023-02-23T13:18:01.648Z,10.77
2023-02-23T13:23:16.353Z,11.38
2023-02-23T13:28:29.414Z,11.30
2023-02-23T13:33:43.511Z,9.60
2023-02-23T13:38:59.890Z,10.25
2023-02-23T13:44:14.388Z,9.95
2023-02-23T13:49:28.844Z,9.43
2023-02-23T13:54:34.611Z,8.30
2023-02-23T13:59:45.508Z,10.32
2023-02-23T14:04:49.026Z,8.57
2023-02-23T14:09:56.813Z,9.27
2023-02-23T14:15:41.084Z,7.40
2023-02-23T14:20:53.467Z,7.70
2023-02-23T14:26:13.621Z,7.03
2023-02-23T14:31:35.784Z,9.27
2023-02-23T14:36:45.021Z,7.30
2023-02-23T14:41:51.914Z,8.80
2023-02-23T14:47:08.814Z,13.88
2023-02-23T14:52:20.918Z,11.57
2023-02-23T14:57:26.060Z,9.27
2023-02-23T15:02:32.112Z,8.40
2023-02-23T15:07:39.960Z,8.63
2023-02-23T15:12:43.402Z,7.95
2023-02-23T15:17:50.518Z,11.43
2023-02-23T15:22:57.662Z,8.77
2023-02-23T15:28:10.930Z,6.97
2023-02-23T15:33:19.496Z,8.77
2023-02-23T15:38:42.502Z,7.63
2023-02-23T15:43:46.776Z,7.30
2023-02-23T15:48:54.637Z,8.15
2023-02-23T15:53:58.420Z,8.52
2023-02-23T15:59:08.460Z,9.50
2023-02-23T16:04:19.461Z,7.75
2023-02-23T16:09:31.404Z,8.93
2023-02-23T16:14:43.668Z,8.30
2023-02-23T16:19:48.816Z,9.30
2023-02-23T16:25:03.080Z,8.13
2023-02-23T16:30:23.711Z,8.77
2023-02-23T16:35:37.940Z,7.65
2023-02-23T16:40:42.644Z,7.63
2023-02-23T16:45:46.770Z,9.98
2023-02-23T16:50:52.714Z,9.63
2023-02-23T16:56:01.304Z,8.50
2023-02-23T17:01:05.178Z,8.20
2023-02-23T17:06:11.186Z,10.82
2023-02-23T17:11:15.521Z,10.65
2023-02-23T17:16:20.102Z,8.88
2023-02-23T17:21:26.765Z,9.95
2023-02-23T17:26:33.070Z,9.32
2023-02-23T17:31:38.324Z,9.50
2023-02-23T17:36:44.498Z,9.70
2023-02-23T17:41:49.045Z,10.20
2023-02-23T17:46:53.313Z,9.60
2023-02-23T17:51:59.910Z,9.48
2023-02-23T17:57:04.601Z,8.15
2023-02-23T18:02:10.995Z,9.75
2023-02-23T18:07:24.900Z,10.23
2023-02-23T18:12:30.054Z,10.15
2023-02-23T18:17:37.937Z,10.27
2023-02-23T18:22:47.058Z,11.52
2023-02-23T18:27:56.324Z,10.88
2023-02-23T18:33:29.031Z,8.27
2023-02-23T18:38:41.663Z,10.18
2023-02-23T18:43:46.938Z,11.15
2023-02-23T18:48:55.163Z,9.98
2023-02-23T18:54:14.475Z,10.05
2023-02-23T18:59:23.515Z,8.40
2023-02-23T19:04:32.619Z,8.60
2023-02-23T19:09:55.133Z,9.55
2023-02-23T19:15:02.231Z,8.93
2023-02-23T19:20:15.950Z,10.63
2023-02-23T19:25:26.461Z,11.60
2023-02-23T19:30:34.602Z,10.90
2023-02-23T19:35:45.051Z,9.30
2023-02-23T19:40:52.376Z,10.07
2023-02-23T19:46:04.158Z,9.68
2023-02-23T19:51:12.218Z,10.27
2023-02-23T19:56:24.697Z,8.30
2023-02-23T20:01:31.730Z,10.32
2023-02-23T20:06:45.738Z,12.40
2023-02-23T20:12:01.474Z,12.10
2023-02-23T20:17:07.259Z,10.48
2023-02-23T20:22:13.892Z,9.88
2023-02-23T20:27:30.571Z,13.35
2023-02-23T20:32:35.030Z,11.65
2023-02-23T20:37:40.437Z,10.90
2023-02-23T20:42:49.404Z,11.18
2023-02-23T20:47:56.367Z,8.93
2023-02-23T20:53:02.986Z,13.32
2023-02-23T20:58:09.804Z,9.27
2023-02-23T21:03:16.098Z,10.43
2023-02-23T21:08:21.548Z,11.90
2023-02-23T21:13:29.057Z,11.32
2023-02-23T21:18:33.823Z,9.13
2023-02-23T21:23:39.163Z,11.48
2023-02-23T21:28:46.462Z,10.07
2023-02-23T21:33:50.924Z,8.95
2023-02-23T21:38:54.984Z,11.30
2023-02-23T21:44:03.525Z,10.60
2023-02-23T21:49:10.015Z,11.32
2023-02-23T21:54:13.793Z,9.18
2023-02-23T21:59:20.621Z,10.63
2023-02-23T22:04:23.960Z,8.93
2023-02-23T22:09:27.501Z,10.50
2023-02-23T22:14:32.217Z,10.60
2023-02-23T22:19:35.491Z,8.80
2023-02-23T22:24:39.124Z,10.02
2023-02-23T22:29:44.421Z,11.02
2023-02-23T22:34:47.838Z,12.70
2023-02-23T22:39:51.145Z,11.35
2023-02-23T22:44:55.874Z,12.57
2023-02-23T22:49:59.871Z,12.32
2023-02-23T22:55:04.080Z,10.90
2023-02-23T23:00:12.693Z,13.38
2023-02-23T23:05:16.864Z,10.90
2023-02-23T23:10:20.378Z,11.57
2023-02-23T23:15:25.077Z,10.23
2023-02-23T23:20:29.681Z,12.10
2023-02-23T23:25:33.017Z,11.68
2023-02-23T23:30:38.174Z,11.27
2023-02-23T23:35:42.761Z,11.27
2023-02-23T23:40:47.088Z,12.93
2023-02-23T23:45:52.082Z,10.80
2023-02-23T23:50:56.255Z,11.82
2023-02-23T23:56:06.392Z,12.52
